createdAt,value
2019-02-20T00:00:18.945Z,15.03
2019-02-20T00:02:46.865Z,16.97
2019-02-20T00:05:14.736Z,16.10
2019-02-20T00:07:42.660Z,16.37
2019-02-20T00:10:11.240Z,15.10
2019-02-20T00:12:39.378Z,16.50
2019-02-20T00:15:07.247Z,14.78
2019-02-20T00:17:35.008Z,14.50
2019-02-20T00:20:03.315Z,13.98
2019-02-20T00:22:39.794Z,13.98
2019-02-20T00:25:00.974Z,13.03
2019-02-20T00:27:28.841Z,12.90
2019-02-20T00:29:56.675Z,12.10
2019-02-20T00:32:24.430Z,12.13
2019-02-20T00:34:52.261Z,12.50
2019-02-20T00:37:20.043Z,12.97
2019-02-20T00:39:47.903Z,12.13
2019-02-20T00:42:15.964Z,11.95
2019-02-20T00:45:03.229Z,11.95
2019-02-20T00:47:49.147Z,11.28
2019-02-20T00:50:17.865Z,12.37
2019-02-20T00:53:03.359Z,11.73
2019-02-20T00:55:31.360Z,11.80
2019-02-20T00:57:59.101Z,11.27
2019-02-20T01:00:28.375Z,12.00
2019-02-20T01:02:56.282Z,11.97
2019-02-20T01:05:24.214Z,11.73
2019-02-20T01:07:51.952Z,11.17
2019-02-20T01:10:19.776Z,11.47
2019-02-20T01:12:47.553Z,11.40
2019-02-20T01:15:15.591Z,11.97
2019-02-20T01:17:43.441Z,11.73
2019-02-20T01:20:11.433Z,11.00
2019-02-20T01:22:39.805Z,11.78
2019-02-20T01:25:07.822Z,11.25
2019-02-20T01:27:35.670Z,11.15
2019-02-20T01:30:03.940Z,12.00
2019-02-20T01:32:31.704Z,11.70
2019-02-20T01:34:59.690Z,11.77
2019-02-20T01:37:27.551Z,11.83
2019-02-20T01:39:55.496Z,11.63
2019-02-20T01:42:23.247Z,12.45
2019-02-20T01:44:51.910Z,10.75
2019-02-20T01:47:19.761Z,11.13
2019-02-20T01:49:47.584Z,11.85
2019-02-20T01:52:15.382Z,11.83
2019-02-20T01:54:43.364Z,10.90
2019-02-20T01:57:11.344Z,10.97
2019-02-20T01:59:39.115Z,11.53
2019-02-20T02:02:07.023Z,11.47
2019-02-20T02:04:34.783Z,12.00
2019-02-20T02:07:02.816Z,12.47
2019-02-20T02:09:30.669Z,11.40
2019-02-20T02:11:58.470Z,11.75
2019-02-20T02:14:26.212Z,12.27
2019-02-20T02:16:54.198Z,11.27
2019-02-20T02:19:22.056Z,11.50
2019-02-20T02:21:49.855Z,11.63
2019-02-20T02:24:17.796Z,11.50
2019-02-20T02:26:45.743Z,11.67
2019-02-20T02:29:13.560Z,11.47
2019-02-20T02:31:41.794Z,11.80
2019-02-20T02:34:19.303Z,11.87
2019-02-20T02:36:48.002Z,13.27
2019-02-20T02:39:15.748Z,11.77
2019-02-20T02:41:44.828Z,12.50
2019-02-20T02:44:12.824Z,11.68
2019-02-20T02:46:40.725Z,11.97
2019-02-20T02:49:08.533Z,12.20
2019-02-20T02:51:36.417Z,12.50
2019-02-20T02:54:04.305Z,11.90
2019-02-20T02:56:32.201Z,12.55
2019-02-20T02:59:00.721Z,12.23
2019-02-20T03:01:29.284Z,11.57
2019-02-20T03:03:57.111Z,12.47
2019-02-20T03:06:24.959Z,12.80
2019-02-20T03:08:52.696Z,12.97
2019-02-20T03:11:20.443Z,12.23
2019-02-20T03:13:48.237Z,12.18
2019-02-20T03:16:16.080Z,12.47
2019-02-20T03:18:43.992Z,12.63
2019-02-20T03:21:11.758Z,12.73
2019-02-20T03:23:40.412Z,12.60
2019-02-20T03:26:08.857Z,12.47
2019-02-20T03:28:36.687Z,12.33
2019-02-20T03:31:04.460Z,11.48
2019-02-20T03:33:32.297Z,12.23
2019-02-20T03:36:02.884Z,12.23
2019-02-20T03:38:30.818Z,11.50
2019-02-20T03:40:58.849Z,12.17
2019-02-20T03:43:26.787Z,11.70
2019-02-20T03:45:54.659Z,11.97
2019-02-20T03:48:22.487Z,10.47
2019-02-20T03:50:50.431Z,10.88
2019-02-20T03:53:18.363Z,11.17
2019-02-20T03:55:46.809Z,10.53
2019-02-20T03:58:14.928Z,10.55
2019-02-20T04:00:42.773Z,10.58
2019-02-20T04:03:10.705Z,9.50
2019-02-20T04:05:38.672Z,10.50
2019-02-20T04:08:06.697Z,10.95
2019-02-20T04:10:34.465Z,10.57
2019-02-20T04:13:02.296Z,10.37
2019-02-20T04:15:30.232Z,9.83
2019-02-20T04:17:58.346Z,10.47
2019-02-20T04:20:26.158Z,10.63
2019-02-20T04:22:54.158Z,10.47
2019-02-20T04:25:21.932Z,9.90
2019-02-20T04:27:49.700Z,10.15
2019-02-20T04:30:18.213Z,10.50
2019-02-20T04:32:46.032Z,9.80
2019-02-20T04:35:13.825Z,10.15
2019-02-20T04:37:41.746Z,11.75
2019-02-20T04:40:09.844Z,10.72
2019-02-20T04:42:37.612Z,10.40
2019-02-20T04:45:06.115Z,11.20
2019-02-20T04:47:33.857Z,10.72
2019-02-20T04:50:01.852Z,10.60
2019-02-20T04:52:29.723Z,10.90
2019-02-20T04:54:58.129Z,10.08
2019-02-20T04:57:25.886Z,11.63
2019-02-20T04:59:53.692Z,10.93
2019-02-20T05:02:21.542Z,11.22
2019-02-20T05:04:49.572Z,11.28
2019-02-20T05:07:17.325Z,11.27
2019-02-20T05:09:48.064Z,11.43
2019-02-20T05:12:15.896Z,11.25
2019-02-20T05:14:44.527Z,11.08
2019-02-20T05:17:12.485Z,10.90
2019-02-20T05:19:40.385Z,10.53
2019-02-20T05:22:08.131Z,10.80
2019-02-20T05:24:35.951Z,10.68
2019-02-20T05:27:03.922Z,10.70
2019-02-20T05:29:31.836Z,10.67
2019-02-20T05:31:59.575Z,10.53
2019-02-20T05:34:27.490Z,10.15
2019-02-20T05:36:55.347Z,10.33
2019-02-20T05:39:23.171Z,10.48
2019-02-20T05:41:50.950Z,11.27
2019-02-20T05:44:18.752Z,10.90
2019-02-20T05:46:46.647Z,10.88
2019-02-20T05:49:14.405Z,10.27
2019-02-20T05:51:42.291Z,10.00
2019-02-20T05:54:10.070Z,10.67
2019-02-20T05:56:37.880Z,11.83
2019-02-20T05:59:05.837Z,10.93
2019-02-20T06:01:33.654Z,10.80
2019-02-20T06:04:01.494Z,11.20
2019-02-20T06:06:29.448Z,11.03
2019-02-20T06:08:57.422Z,10.30
2019-02-20T06:11:25.238Z,10.80
2019-02-20T06:13:53.007Z,10.27
2019-02-20T06:16:20.940Z,10.53
2019-02-20T06:18:48.699Z,9.73
2019-02-20T06:21:16.582Z,9.87
2019-02-20T06:23:44.409Z,9.57
2019-02-20T06:26:12.352Z,10.03
2019-02-20T06:28:40.198Z,10.10
2019-02-20T06:31:08.048Z,9.55
2019-02-20T06:33:36.427Z,9.93
2019-02-20T06:36:04.386Z,9.85
2019-02-20T06:38:32.182Z,9.80
2019-02-20T06:41:00.113Z,10.00
2019-02-20T06:43:27.940Z,10.20
2019-02-20T06:45:55.728Z,9.87
2019-02-20T06:48:23.494Z,9.63
2019-02-20T06:50:51.448Z,10.18
2019-02-20T06:55:53.984Z,9.80
2019-02-20T06:58:21.921Z,11.05
2019-02-20T07:00:49.730Z,10.63
2019-02-20T07:03:17.460Z,10.28
2019-02-20T07:06:09.466Z,9.80
2019-02-20T07:08:54.108Z,10.20
2019-02-20T07:12:02.570Z,11.08
2019-02-20T07:15:02.313Z,11.18
2019-02-20T07:18:02.404Z,10.35
2019-02-20T07:21:08.627Z,10.15
2019-02-20T07:24:03.019Z,10.88
2019-02-20T07:27:03.555Z,11.97
2019-02-20T07:29:59.801Z,11.38
2019-02-20T07:32:27.558Z,11.25
2019-02-20T07:34:55.501Z,10.93
2019-02-20T07:37:23.361Z,11.43
2019-02-20T07:39:51.313Z,12.70
2019-02-20T07:42:19.278Z,11.43
2019-02-20T07:44:47.073Z,11.17
2019-02-20T07:47:14.867Z,11.83
2019-02-20T07:49:42.623Z,12.20
2019-02-20T07:52:10.600Z,12.20
2019-02-20T07:54:38.350Z,12.07
2019-02-20T07:57:06.264Z,11.23
2019-02-20T07:59:34.000Z,12.47
2019-02-20T08:02:01.835Z,11.57
2019-02-20T08:04:29.584Z,12.77
2019-02-20T08:06:57.377Z,13.23
2019-02-20T08:09:25.369Z,12.23
2019-02-20T08:11:53.286Z,12.60
2019-02-20T08:14:21.115Z,12.35
2019-02-20T08:16:52.215Z,12.90
2019-02-20T08:19:18.613Z,12.77
2019-02-20T08:21:46.438Z,12.33
2019-02-20T08:24:14.173Z,11.97
2019-02-20T08:26:42.062Z,12.37
2019-02-20T08:29:10.252Z,12.53
2019-02-20T08:31:38.094Z,12.73
2019-02-20T08:34:05.962Z,12.73
2019-02-20T08:36:33.870Z,13.20
2019-02-20T08:39:01.625Z,11.88
2019-02-20T08:41:29.383Z,13.23
2019-02-20T08:43:57.277Z,12.20
2019-02-20T08:46:25.026Z,11.70
2019-02-20T08:48:52.834Z,12.27
2019-02-20T08:51:20.645Z,12.67
2019-02-20T08:53:48.450Z,11.27
2019-02-20T08:56:16.287Z,11.63
2019-02-20T08:58:44.176Z,10.68
2019-02-20T09:01:11.914Z,11.13
2019-02-20T09:03:39.838Z,10.50
2019-02-20T09:06:08.788Z,10.10
2019-02-20T09:08:36.616Z,12.10
2019-02-20T09:11:04.554Z,148.50
2019-02-20T09:13:32.928Z,103.70
2019-02-20T09:16:00.673Z,113.17
2019-02-20T09:18:28.494Z,92.97
2019-02-20T09:20:56.254Z,34.08
2019-02-20T09:23:24.041Z,14.60
2019-02-20T09:25:51.890Z,9.53
2019-02-20T09:28:19.708Z,8.27
2019-02-20T09:30:47.481Z,8.70
2019-02-20T09:33:15.391Z,9.03
2019-02-20T09:35:43.165Z,8.70
2019-02-20T09:38:10.966Z,7.43
2019-02-20T09:40:38.813Z,7.63
2019-02-20T09:43:06.767Z,7.53
2019-02-20T09:45:41.748Z,8.53
2019-02-20T09:48:04.482Z,7.30
2019-02-20T09:50:32.304Z,7.60
2019-02-20T09:53:00.133Z,6.90
2019-02-20T09:55:31.625Z,7.13
2019-02-20T09:57:59.654Z,6.87
2019-02-20T10:00:27.674Z,7.40
2019-02-20T10:02:55.545Z,6.80
2019-02-20T10:05:23.374Z,6.50
2019-02-20T10:07:51.173Z,6.70
2019-02-20T10:10:19.113Z,6.70
2019-02-20T10:12:46.886Z,6.50
2019-02-20T10:15:14.909Z,6.10
2019-02-20T10:17:42.787Z,5.63
2019-02-20T10:20:10.858Z,5.93
2019-02-20T10:22:38.749Z,5.67
2019-02-20T10:25:06.938Z,6.43
2019-02-20T10:27:35.174Z,5.77
2019-02-20T10:30:03.523Z,5.73
2019-02-20T10:32:31.491Z,6.33
2019-02-20T10:34:59.502Z,5.93
2019-02-20T10:37:27.278Z,5.70
2019-02-20T10:39:55.292Z,5.87
2019-02-20T10:42:23.476Z,5.93
2019-02-20T10:44:51.922Z,5.77
2019-02-20T10:47:19.710Z,5.20
2019-02-20T10:49:47.635Z,5.83
2019-02-20T10:52:15.672Z,5.40
2019-02-20T10:54:43.504Z,5.67
2019-02-20T10:57:11.425Z,5.93
2019-02-20T10:59:43.866Z,5.15
2019-02-20T11:02:12.116Z,6.17
2019-02-20T11:04:39.955Z,5.77
2019-02-20T11:07:07.858Z,4.63
2019-02-20T11:09:35.769Z,6.20
2019-02-20T11:12:03.544Z,5.27
2019-02-20T11:14:32.116Z,5.90
2019-02-20T11:16:59.949Z,5.70
2019-02-20T11:19:27.785Z,5.20
2019-02-20T11:21:55.635Z,5.10
2019-02-20T11:24:23.489Z,5.83
2019-02-20T11:26:55.054Z,5.30
2019-02-20T11:29:21.249Z,5.17
2019-02-20T11:31:49.863Z,5.57
2019-02-20T11:34:19.763Z,6.37
2019-02-20T11:36:49.326Z,5.33
2019-02-20T11:39:17.538Z,5.33
2019-02-20T11:41:46.750Z,5.03
2019-02-20T11:44:20.770Z,4.90
2019-02-20T11:46:44.722Z,5.53
2019-02-20T11:49:12.517Z,5.17
2019-02-20T11:51:40.498Z,5.57
2019-02-20T11:54:08.473Z,6.00
2019-02-20T11:56:36.344Z,4.90
2019-02-20T11:59:04.323Z,5.40
2019-02-20T12:01:32.324Z,5.37
2019-02-20T12:04:00.100Z,5.63
2019-02-20T12:06:27.957Z,4.83
2019-02-20T12:08:55.815Z,5.07
2019-02-20T12:11:23.625Z,4.73
2019-02-20T12:13:51.700Z,5.60
2019-02-20T12:16:19.508Z,4.40
2019-02-20T12:18:47.393Z,5.17
2019-02-20T12:21:15.384Z,4.70
2019-02-20T12:23:43.318Z,4.70
2019-02-20T12:26:11.370Z,5.37
2019-02-20T12:28:39.847Z,5.53
2019-02-20T12:31:07.790Z,5.33
2019-02-20T12:33:35.630Z,4.23
2019-02-20T12:36:03.731Z,5.13
2019-02-20T12:38:31.746Z,5.17
2019-02-20T12:41:00.113Z,4.47
2019-02-20T12:43:27.948Z,4.30
2019-02-20T12:45:55.821Z,5.10
2019-02-20T12:48:23.616Z,4.40
2019-02-20T12:50:52.173Z,4.37
2019-02-20T12:53:20.036Z,3.90
2019-02-20T12:55:47.907Z,4.27
2019-02-20T12:58:15.759Z,4.70
2019-02-20T13:00:43.831Z,4.37
2019-02-20T13:03:12.333Z,4.33
2019-02-20T13:05:40.137Z,3.90
2019-02-20T13:08:08.077Z,3.97
2019-02-20T13:10:36.932Z,4.40
2019-02-20T13:13:04.877Z,4.13
2019-02-20T13:15:32.870Z,3.73
2019-02-20T13:18:00.787Z,3.77
2019-02-20T13:20:28.547Z,3.90
2019-02-20T13:22:56.876Z,4.10
2019-02-20T13:25:24.625Z,3.70
2019-02-20T13:27:52.469Z,3.93
2019-02-20T13:30:20.244Z,3.90
2019-02-20T13:32:50.957Z,3.77
2019-02-20T13:35:18.849Z,3.50
2019-02-20T13:37:46.657Z,3.87
2019-02-20T13:40:14.635Z,3.43
2019-02-20T13:42:42.474Z,3.30
2019-02-20T13:45:10.417Z,3.50
2019-02-20T13:47:40.292Z,3.63
2019-02-20T13:50:08.298Z,3.20
2019-02-20T13:52:36.305Z,3.93
2019-02-20T13:55:06.218Z,3.80
2019-02-20T13:57:34.361Z,3.90
2019-02-20T14:00:02.403Z,3.90
2019-02-20T14:02:30.356Z,4.13
2019-02-20T14:04:58.150Z,3.47
2019-02-20T14:07:26.012Z,3.40
2019-02-20T14:09:53.923Z,3.87
2019-02-20T14:12:21.874Z,4.33
2019-02-20T14:14:49.669Z,4.30
2019-02-20T14:17:26.241Z,5.53
2019-02-20T14:19:47.379Z,3.67
2019-02-20T14:22:15.255Z,4.57
2019-02-20T14:24:43.114Z,4.63
2019-02-20T14:27:11.338Z,5.60
2019-02-20T14:29:39.408Z,4.97
2019-02-20T14:32:07.591Z,4.47
2019-02-20T14:34:35.518Z,7.63
2019-02-20T14:37:03.388Z,5.00
2019-02-20T14:39:31.230Z,5.03
2019-02-20T14:42:00.963Z,5.10
2019-02-20T14:44:28.846Z,4.87
2019-02-20T14:46:56.738Z,5.43
2019-02-20T14:49:24.737Z,4.80
2019-02-20T14:51:53.410Z,5.33
2019-02-20T14:54:21.514Z,5.10
2019-02-20T14:56:49.422Z,5.30
2019-02-20T14:59:17.377Z,5.30
2019-02-20T15:01:45.147Z,5.20
2019-02-20T15:04:13.295Z,5.33
2019-02-20T15:06:41.080Z,4.40
2019-02-20T15:09:09.053Z,5.30
2019-02-20T15:11:37.098Z,5.47
2019-02-20T15:14:05.034Z,5.60
2019-02-20T15:16:32.850Z,5.13
2019-02-20T15:19:00.615Z,5.27
2019-02-20T15:21:28.613Z,5.13
2019-02-20T15:23:56.487Z,5.37
2019-02-20T15:26:24.424Z,5.43
2019-02-20T15:28:52.170Z,5.17
2019-02-20T15:31:21.348Z,6.30
2019-02-20T15:33:49.224Z,5.50
2019-02-20T15:36:17.152Z,6.00
2019-02-20T15:38:46.108Z,5.10
2019-02-20T15:41:14.018Z,4.93
2019-02-20T15:43:53.156Z,5.53
2019-02-20T15:46:21.123Z,5.67
2019-02-20T15:48:48.889Z,5.33
2019-02-20T15:51:16.694Z,4.80
2019-02-20T15:53:44.956Z,5.67
2019-02-20T15:56:12.947Z,4.83
2019-02-20T15:58:40.974Z,6.07
2019-02-20T16:01:09.455Z,5.77
2019-02-20T16:03:38.022Z,5.63
2019-02-20T16:06:05.958Z,5.47
2019-02-20T16:08:33.943Z,5.23
2019-02-20T16:11:02.264Z,5.63
2019-02-20T16:13:30.059Z,5.20
2019-02-20T16:15:57.992Z,5.47
2019-02-20T16:18:25.940Z,5.87
2019-02-20T16:20:53.967Z,5.87
2019-02-20T16:23:21.842Z,5.30
2019-02-20T16:25:49.601Z,6.03
2019-02-20T16:28:17.814Z,6.97
2019-02-20T16:30:45.684Z,5.80
2019-02-20T16:33:13.506Z,6.53
2019-02-20T16:35:41.371Z,6.30
2019-02-20T16:38:09.310Z,6.70
2019-02-20T16:40:37.081Z,5.97
2019-02-20T16:43:05.128Z,6.80
2019-02-20T16:45:33.385Z,7.63
2019-02-20T16:48:01.312Z,8.13
2019-02-20T16:50:29.090Z,7.20
2019-02-20T16:52:56.893Z,8.40
2019-02-20T16:55:24.694Z,8.67
2019-02-20T16:57:56.554Z,7.87
2019-02-20T17:00:23.399Z,11.27
2019-02-20T17:02:51.709Z,26.97
2019-02-20T17:05:19.658Z,19.07
2019-02-20T17:07:47.690Z,24.27
2019-02-20T17:10:15.859Z,33.30
2019-02-20T17:12:43.892Z,15.83
2019-02-20T17:15:12.209Z,23.17
2019-02-20T17:17:40.226Z,32.03
2019-02-20T17:20:10.393Z,44.43
2019-02-20T17:22:38.470Z,37.67
2019-02-20T17:25:07.483Z,28.07
2019-02-20T17:27:35.477Z,26.00
2019-02-20T17:30:03.788Z,13.60
2019-02-20T17:32:33.042Z,12.10
2019-02-20T17:35:01.472Z,13.67
2019-02-20T17:37:29.388Z,14.30
2019-02-20T17:39:57.145Z,15.87
2019-02-20T17:42:24.971Z,15.27
2019-02-20T17:44:52.839Z,14.40
2019-02-20T17:47:20.738Z,33.73
2019-02-20T17:49:48.577Z,151.87
2019-02-20T17:52:16.831Z,91.57
2019-02-20T17:54:44.649Z,15.00
2019-02-20T17:57:12.676Z,12.27
2019-02-20T17:59:41.263Z,12.03
2019-02-20T18:02:09.524Z,11.90
2019-02-20T18:04:37.351Z,11.47
2019-02-20T18:07:05.293Z,13.23
2019-02-20T18:09:33.203Z,11.33
2019-02-20T18:12:01.586Z,13.53
2019-02-20T18:14:29.515Z,13.83
2019-02-20T18:16:58.094Z,12.67
2019-02-20T18:19:29.514Z,13.00
2019-02-20T18:21:57.463Z,12.73
2019-02-20T18:24:26.133Z,12.90
2019-02-20T18:26:53.944Z,13.87
2019-02-20T18:29:21.790Z,13.77
2019-02-20T18:31:49.675Z,113.87
2019-02-20T18:34:17.527Z,144.03
2019-02-20T18:36:45.391Z,51.20
2019-02-20T18:39:13.395Z,17.43
2019-02-20T18:41:41.250Z,15.60
2019-02-20T18:44:09.368Z,101.70
2019-02-20T18:46:37.140Z,96.60
2019-02-20T18:49:05.072Z,104.00
2019-02-20T18:51:32.820Z,36.67
2019-02-20T18:54:00.621Z,16.53
2019-02-20T18:56:28.418Z,14.50
2019-02-20T18:58:56.426Z,13.13
2019-02-20T19:01:24.268Z,13.97
2019-02-20T19:03:52.872Z,13.27
2019-02-20T19:06:20.756Z,14.53
2019-02-20T19:09:02.374Z,13.37
2019-02-20T19:11:53.360Z,13.00
2019-02-20T19:14:40.661Z,13.87
2019-02-20T19:17:51.033Z,12.83
2019-02-20T19:20:35.533Z,13.03
2019-02-20T19:23:36.804Z,12.87
2019-02-20T19:26:36.952Z,12.30
2019-02-20T19:29:43.398Z,12.33
2019-02-20T19:33:14.136Z,12.60
2019-02-20T19:36:11.692Z,105.13
2019-02-20T19:39:27.070Z,120.23
2019-02-20T19:42:46.691Z,15.40
2019-02-20T19:45:44.134Z,13.57
2019-02-20T19:48:49.432Z,12.80
2019-02-20T19:52:11.478Z,12.53
2019-02-20T19:54:57.767Z,13.17
2019-02-20T19:57:57.208Z,12.83
2019-02-20T20:01:02.023Z,12.40
2019-02-20T20:03:52.996Z,12.73
2019-02-20T20:06:49.685Z,11.73
2019-02-20T20:09:28.329Z,12.33
2019-02-20T20:12:33.465Z,12.80
2019-02-20T20:15:41.890Z,12.47
2019-02-20T20:18:50.203Z,12.87
2019-02-20T20:21:57.180Z,13.40
2019-02-20T20:24:56.885Z,14.10
2019-02-20T20:27:52.603Z,15.23
2019-02-20T20:30:43.635Z,13.90
2019-02-20T20:34:01.885Z,14.30
2019-02-20T20:37:16.151Z,13.97
2019-02-20T20:40:28.272Z,14.17
2019-02-20T20:43:40.106Z,13.93
2019-02-20T20:46:41.397Z,13.17
2019-02-20T20:49:37.591Z,14.27
2019-02-20T20:52:32.878Z,15.00
2019-02-20T20:55:33.882Z,14.37
2019-02-20T20:58:35.226Z,15.50
2019-02-20T21:01:36.564Z,13.20
2019-02-20T21:04:56.950Z,14.67
2019-02-20T21:07:52.729Z,15.90
2019-02-20T21:10:57.938Z,16.90
2019-02-20T21:13:39.453Z,16.93
2019-02-20T21:17:00.511Z,17.83
2019-02-20T21:20:05.619Z,17.23
2019-02-20T21:23:11.489Z,17.93
2019-02-20T21:26:33.873Z,17.63
2019-02-20T21:29:40.048Z,19.03
2019-02-20T21:33:00.111Z,18.03
2019-02-20T21:36:06.851Z,17.77
2019-02-20T21:38:59.333Z,16.40
2019-02-20T21:42:05.300Z,16.77
2019-02-20T21:44:54.957Z,16.40
2019-02-20T21:47:58.860Z,15.93
2019-02-20T21:50:49.298Z,16.20
2019-02-20T21:54:10.678Z,15.43
2019-02-20T21:57:12.550Z,14.97
2019-02-20T22:00:03.674Z,14.33
2019-02-20T22:02:54.838Z,14.60
2019-02-20T22:06:01.888Z,14.50
2019-02-20T22:09:13.277Z,13.47
2019-02-20T22:12:37.520Z,13.10
2019-02-20T22:15:55.279Z,14.73
2019-02-20T22:19:05.249Z,13.43
2019-02-20T22:22:00.278Z,13.20
2019-02-20T22:25:12.435Z,12.97
2019-02-20T22:28:03.939Z,12.70
2019-02-20T22:31:06.974Z,12.30
2019-02-20T22:33:55.696Z,12.60
2019-02-20T22:37:00.740Z,12.63
2019-02-20T22:39:53.739Z,13.10
2019-02-20T22:43:14.333Z,12.40
2019-02-20T22:45:56.684Z,11.83
2019-02-20T22:49:14.015Z,12.03
2019-02-20T22:52:11.369Z,11.37
2019-02-20T22:55:15.622Z,11.10
2019-02-20T22:57:50.614Z,10.90
2019-02-20T23:01:03.248Z,11.00
2019-02-20T23:03:59.171Z,11.37
2019-02-20T23:06:48.148Z,10.67
2019-02-20T23:09:43.491Z,11.00
2019-02-20T23:13:00.108Z,11.20
2019-02-20T23:15:28.060Z,10.37
2019-02-20T23:17:55.980Z,10.17
2019-02-20T23:20:23.748Z,10.10
2019-02-20T23:22:51.661Z,10.73
2019-02-20T23:25:19.543Z,11.50
2019-02-20T23:27:47.290Z,10.53
2019-02-20T23:30:18.556Z,9.90
2019-02-20T23:32:46.571Z,10.10
2019-02-20T23:35:14.516Z,10.33
2019-02-20T23:37:42.263Z,10.30
2019-02-20T23:40:10.305Z,10.37
2019-02-20T23:42:38.084Z,10.97
2019-02-20T23:45:06.091Z,9.90
2019-02-20T23:47:34.492Z,10.57
2019-02-20T23:50:02.348Z,10.43
2019-02-20T23:52:30.165Z,10.03
2019-02-20T23:54:57.947Z,10.13
2019-02-20T23:57:25.857Z,9.83
2019-02-20T23:59:53.944Z,9.63
